Time;durP1;ratioP1;P1;durP2;ratioP2;P2;SDS_P1;SDS_P2;PMS_P1;PMS_P2;Temp;Humidity;BMP_temperature;BMP_pressure;BME280_temperature;BME280_humidity;BME280_pressure;Samples;Min_cycle;Max_cycle;Signal;HPM_P1;HPM_P2
2021/06/13 00:01:54;;;;;;;17.73;4.53;;;;;;;20.28;42.50;101771.53;5096751;28;20489;-51
2021/06/13 00:04:21;;;;;;;14.90;3.97;;;;;;;20.21;43.00;101769.66;5097760;28;20484;-46
2021/06/13 00:06:52;;;;;;;15.80;4.43;;;;;;;20.16;43.07;101768.69;5097447;28;20462;-53
2021/06/13 00:09:19;;;;;;;10.27;3.10;;;;;;;20.28;41.91;101776.78;5077319;28;20472;-51
2021/06/13 00:11:46;;;;;;;12.80;4.10;;;;;;;20.41;41.79;101771.75;5077778;28;20452;-49
2021/06/13 00:14:13;;;;;;;16.23;3.67;;;;;;;20.24;42.09;101772.31;5095690;28;20570;-49
2021/06/13 00:16:41;;;;;;;13.73;4.37;;;;;;;20.37;41.90;101771.66;5097283;28;20836;-50
2021/06/13 00:19:08;;;;;;;15.63;3.73;;;;;;;19.92;42.82;101770.84;5096268;28;20567;-49
2021/06/13 00:21:36;;;;;;;17.03;3.53;;;;;;;19.76;43.31;101777.53;5097082;28;20483;-49
2021/06/13 00:24:05;;;;;;;13.97;3.93;;;;;;;19.64;43.84;101772.06;5096092;28;20555;-52
2021/06/13 00:26:33;;;;;;;16.20;3.97;;;;;;;19.68;43.34;101768.63;5097320;28;20506;-46
2021/06/13 00:29:00;;;;;;;11.73;3.63;;;;;;;19.84;43.12;101775.94;5096011;28;20789;-49
2021/06/13 00:31:27;;;;;;;17.50;3.73;;;;;;;20.09;42.32;101775.53;5097370;28;20908;-49
2021/06/13 00:33:55;;;;;;;16.33;4.27;;;;;;;20.17;42.60;101781.81;5095838;28;20569;-49
2021/06/13 00:36:22;;;;;;;13.80;4.00;;;;;;;19.84;42.75;101789.03;5096872;28;20473;-46
2021/06/13 00:38:49;;;;;;;15.17;4.03;;;;;;;19.82;42.94;101792.47;5095887;28;20512;-47
2021/06/13 00:41:19;;;;;;;15.07;4.20;;;;;;;19.78;42.83;101791.53;5097387;28;20484;-48
2021/06/13 00:43:46;;;;;;;12.90;3.47;;;;;;;19.64;43.29;101793.84;5095835;28;20941;-49
2021/06/13 00:46:13;;;;;;;20.97;4.23;;;;;;;19.81;42.53;101788.97;5096723;28;20464;-49
2021/06/13 00:48:41;;;;;;;15.17;4.00;;;;;;;19.68;43.19;101786.94;5095184;28;20472;-48
2021/06/13 00:51:08;;;;;;;11.13;3.40;;;;;;;19.54;42.89;101790.16;5097047;28;20455;-49
2021/06/13 00:53:36;;;;;;;14.90;4.27;;;;;;;19.86;42.19;101790.78;5095868;28;20474;-51
2021/06/13 00:56:03;;;;;;;17.90;3.73;;;;;;;19.69;42.48;101783.50;5096467;28;20463;-48
2021/06/13 00:58:32;;;;;;;15.93;4.27;;;;;;;19.38;43.54;101790.72;5095376;28;20493;-49
2021/06/13 01:00:59;;;;;;;12.77;3.87;;;;;;;19.28;43.78;101789.63;5096704;28;20650;-48
2021/06/13 01:03:26;;;;;;;16.60;3.70;;;;;;;19.63;42.47;101792.09;5095515;28;20497;-47
2021/06/13 01:05:53;;;;;;;14.97;4.20;;;;;;;19.74;42.44;101797.53;5096437;28;20458;-46
2021/06/13 01:08:24;;;;;;;15.10;4.13;;;;;;;19.33;43.01;101787.97;5095232;28;20482;-48
2021/06/13 01:11:00;;;;;;;14.03;4.57;;;;;;;19.33;43.60;101792.34;5096691;28;20490;-50
2021/06/13 01:13:33;;;;;;;15.10;4.10;;;;;;;19.64;42.70;101795.59;5095362;28;20487;-49
2021/06/13 01:16:05;;;;;;;13.10;4.53;;;;;;;19.59;42.74;101797.25;5096168;28;20878;-52
2021/06/13 01:18:37;;;;;;;12.93;3.30;;;;;;;19.20;43.03;101799.91;5077823;28;20970;-49
2021/06/13 01:21:07;;;;;;;13.33;4.03;;;;;;;19.46;42.92;101806.56;5075984;28;20773;-47
2021/06/13 01:24:04;;;;;;;13.07;3.33;;;;;;;19.23;43.05;101797.34;5074789;28;20476;-46
2021/06/13 01:26:54;;;;;;;12.43;4.23;;;;;;;19.13;43.84;101798.00;5075887;28;20465;-48
2021/06/13 01:29:24;;;;;;;12.30;4.33;;;;;;;19.37;43.16;101797.66;5074676;28;20494;-50
2021/06/13 01:31:54;;;;;;;12.13;3.83;;;;;;;19.28;43.41;101800.09;5076116;28;20459;-46
2021/06/13 01:34:23;;;;;;;9.93;3.70;;;;;;;19.17;43.37;101797.22;5075524;28;20757;-50
2021/06/13 01:36:55;;;;;;;12.57;3.97;;;;;;;19.00;43.79;101800.31;5075118;28;20474;-50
2021/06/13 01:39:25;;;;;;;13.80;4.00;;;;;;;18.86;44.00;101802.59;5075327;28;20770;-47
2021/06/13 01:41:52;;;;;;;19.10;4.23;;;;;;;18.69;44.38;101802.19;5075520;28;20485;-49
2021/06/13 01:44:21;;;;;;;12.40;3.90;;;;;;;18.81;43.91;101809.44;5075565;28;20476;-47
2021/06/13 01:46:50;;;;;;;32.30;10.33;;;;;;;18.78;44.83;101798.03;5075371;28;20462;-49
2021/06/13 01:49:20;;;;;;;13.93;3.60;;;;;;;18.91;43.46;101805.31;5074197;28;20482;-51
2021/06/13 01:51:48;;;;;;;11.07;3.50;;;;;;;18.75;43.82;101804.94;5075645;28;20458;-50
2021/06/13 01:54:15;;;;;;;9.70;3.40;;;;;;;18.93;43.60;101808.88;5074305;28;20487;-48
2021/06/13 01:56:46;;;;;;;21.20;5.30;;;;;;;18.96;43.73;101806.31;5075308;28;20457;-47
2021/06/13 01:59:13;;;;;;;20.80;4.30;;;;;;;19.19;42.75;101803.38;5074356;28;20467;-48
2021/06/13 02:01:41;;;;;;;18.27;5.33;;;;;;;19.29;43.17;101800.09;5075548;28;20489;-48
2021/06/13 02:04:10;;;;;;;13.90;3.90;;;;;;;19.39;43.17;101806.41;5074194;28;20798;-47
2021/06/13 02:06:40;;;;;;;14.37;6.43;;;;;;;18.87;43.81;101809.59;5075238;28;20454;-51
2021/06/13 02:09:07;;;;;;;15.30;3.80;;;;;;;19.15;42.75;101809.38;5074107;28;20483;-46
2021/06/13 02:11:35;;;;;;;14.30;3.93;;;;;;;19.18;42.88;101803.34;5075593;28;20451;-49
2021/06/13 02:14:03;;;;;;;13.10;3.97;;;;;;;18.99;43.17;101810.72;5073751;28;20790;-49
2021/06/13 02:16:30;;;;;;;16.77;4.67;;;;;;;18.93;43.41;101807.97;5075212;28;20843;-49
2021/06/13 02:18:58;;;;;;;12.73;3.90;;;;;;;19.06;43.21;101809.19;5074097;28;20762;-48
2021/06/13 02:21:27;;;;;;;11.70;4.00;;;;;;;19.15;42.89;101809.38;5075231;28;20463;-50
2021/06/13 02:23:55;;;;;;;13.73;3.80;;;;;;;19.33;42.78;101818.50;5073853;28;20479;-48
2021/06/13 02:26:24;;;;;;;11.93;4.50;;;;;;;19.32;42.57;101827.19;5075152;28;20461;-51
2021/06/13 02:28:54;;;;;;;11.33;3.40;;;;;;;19.53;42.12;101827.66;5073824;28;20488;-49
2021/06/13 02:31:24;;;;;;;13.87;3.80;;;;;;;18.75;44.07;101833.72;5075293;28;20893;-48
2021/06/13 02:33:52;;;;;;;15.20;4.50;;;;;;;19.27;43.21;101834.91;5073909;28;20507;-50
2021/06/13 02:36:19;;;;;;;13.50;3.23;;;;;;;19.53;42.52;101847.72;5074908;28;20471;-51
2021/06/13 02:38:47;;;;;;;12.83;4.23;;;;;;;19.20;43.57;101854.84;5073932;28;20499;-51
2021/06/13 02:41:14;;;;;;;15.63;3.57;;;;;;;19.32;43.51;101864.69;5079435;28;20462;-51
2021/06/13 02:43:41;;;;;;;12.57;3.70;;;;;;;19.28;43.64;101853.28;5077938;28;20479;-52
2021/06/13 02:46:08;;;;;;;13.77;4.20;;;;;;;19.18;44.27;101851.31;5078816;28;20459;-48
2021/06/13 02:48:36;;;;;;;13.30;3.90;;;;;;;19.22;44.70;101847.91;5077678;28;21117;-46
2021/06/13 02:51:03;;;;;;;14.80;3.70;;;;;;;18.75;45.72;101841.53;5079290;28;20463;-48
2021/06/13 02:53:42;;;;;;;17.73;3.67;;;;;;;18.96;45.92;101842.91;5077367;28;20474;-52
2021/06/13 02:56:14;;;;;;;16.17;4.30;;;;;;;19.34;44.19;101846.44;5078680;28;20459;-47
2021/06/13 02:58:43;;;;;;;17.30;4.00;;;;;;;19.02;44.72;101845.72;5077649;28;20479;-47
2021/06/13 03:01:16;;;;;;;17.23;4.20;;;;;;;18.84;45.53;101845.22;5079184;28;20460;-48
2021/06/13 03:03:44;;;;;;;14.60;3.93;;;;;;;19.06;44.91;101845.81;5077902;28;20476;-47
2021/06/13 03:06:12;;;;;;;20.30;3.77;;;;;;;19.06;44.84;101843.19;5078325;28;20926;-48
2021/06/13 03:08:39;;;;;;;15.30;4.00;;;;;;;19.30;44.16;101840.25;5077426;28;20480;-49
2021/06/13 03:11:08;;;;;;;12.47;4.03;;;;;;;19.49;43.92;101851.97;5078709;28;20467;-47
2021/06/13 03:13:36;;;;;;;13.20;3.73;;;;;;;19.13;44.76;101845.09;5077062;28;20477;-46
2021/06/13 03:16:04;;;;;;;14.50;3.77;;;;;;;19.16;44.47;101838.19;5078304;28;20451;-48
2021/06/13 03:18:32;;;;;;;22.33;5.10;;;;;;;19.05;44.65;101834.44;5077220;28;20483;-50
2021/06/13 03:21:00;;;;;;;19.20;6.83;;;;;;;19.26;44.78;101834.06;5078591;28;20455;-48
2021/06/13 03:23:31;;;;;;;17.87;6.20;;;;;;;19.42;43.96;101847.47;5077204;28;20471;-50
2021/06/13 03:26:01;;;;;;;16.87;5.87;;;;;;;19.43;43.93;101857.09;5078049;28;20489;-49
2021/06/13 03:28:28;;;;;;;14.93;4.40;;;;;;;19.58;43.25;101866.16;5076939;28;20470;-47
2021/06/13 03:30:57;;;;;;;14.20;3.83;;;;;;;19.88;42.96;101872.91;5078454;28;20469;-50
2021/06/13 03:33:25;;;;;;;14.63;3.43;;;;;;;19.98;42.48;101872.25;5076980;28;20485;-51
2021/06/13 03:35:53;;;;;;;18.17;4.60;;;;;;;20.07;42.58;101872.44;5077827;28;20472;-52
2021/06/13 03:38:20;;;;;;;22.17;4.37;;;;;;;19.83;42.98;101878.00;5076859;28;20473;-49
2021/06/13 03:40:49;;;;;;;10.63;3.53;;;;;;;19.87;42.59;101873.72;5078391;28;20456;-49
2021/06/13 03:43:18;;;;;;;15.03;4.60;;;;;;;19.68;43.57;101869.00;5076627;28;20480;-47
2021/06/13 03:45:46;;;;;;;16.27;3.40;;;;;;;19.55;43.56;101878.28;5077863;28;20459;-48
2021/06/13 03:48:17;;;;;;;13.63;3.73;;;;;;;19.53;43.57;101869.53;5076587;28;20507;-50
2021/06/13 03:50:46;;;;;;;18.10;3.87;;;;;;;19.54;43.83;101873.91;5077380;28;20457;-50
2021/06/13 03:53:15;;;;;;;11.33;4.07;;;;;;;19.70;43.05;101872.50;5076836;28;20481;-47
2021/06/13 03:55:42;;;;;;;12.57;4.27;;;;;;;19.79;42.94;101877.06;5077564;28;20461;-49
2021/06/13 03:58:10;;;;;;;17.13;3.33;;;;;;;19.69;43.00;101881.22;5076415;28;20473;-51
2021/06/13 04:00:39;;;;;;;12.47;4.10;;;;;;;19.51;43.98;101876.47;5078010;28;20555;-45
2021/06/13 04:03:16;;;;;;;13.57;4.10;;;;;;;19.65;44.25;101868.03;5076904;28;20496;-48
2021/06/13 04:05:45;;;;;;;14.47;3.67;;;;;;;19.43;44.00;101881.53;5077607;28;20449;-51
2021/06/13 04:08:14;;;;;;;13.37;3.30;;;;;;;19.66;43.13;101882.91;5076321;28;20556;-46
2021/06/13 04:10:42;;;;;;;14.03;5.73;;;;;;;19.56;43.67;101882.69;5077585;28;20875;-49
2021/06/13 04:13:12;;;;;;;15.13;4.03;;;;;;;19.61;43.05;101881.91;5076328;28;20473;-49
2021/06/13 04:15:39;;;;;;;16.37;3.73;;;;;;;19.45;43.73;101884.19;5077291;28;20772;-47
2021/06/13 04:18:08;;;;;;;12.80;4.20;;;;;;;19.66;43.12;101885.50;5075603;28;20478;-50
2021/06/13 04:20:38;;;;;;;24.53;4.00;;;;;;;19.47;43.68;101887.72;5077487;28;20468;-46
2021/06/13 04:23:06;;;;;;;16.20;4.80;;;;;;;19.79;42.71;101894.53;5076061;28;20583;-48
2021/06/13 04:25:34;;;;;;;15.20;4.13;;;;;;;19.90;42.64;101906.09;5077101;28;20462;-46
2021/06/13 04:28:01;;;;;;;15.67;4.30;;;;;;;19.56;43.64;101897.50;5075929;28;20561;-48
2021/06/13 04:30:29;;;;;;;14.20;3.83;;;;;;;19.54;43.54;101883.53;5076947;28;20481;-51
2021/06/13 04:32:57;;;;;;;14.10;4.10;;;;;;;19.68;43.12;101896.88;5075895;28;20485;-49
2021/06/13 04:35:25;;;;;;;12.60;4.00;;;;;;;19.98;42.71;101895.81;5076668;28;20966;-48
2021/06/13 04:37:54;;;;;;;15.23;4.13;;;;;;;19.67;42.85;101897.75;5076047;28;20478;-47
2021/06/13 04:40:21;;;;;;;11.13;4.27;;;;;;;19.64;43.08;101900.31;5076863;28;20484;-46
2021/06/13 04:42:49;;;;;;;11.50;4.40;;;;;;;19.54;43.69;101900.09;5075842;28;20489;-47
2021/06/13 04:45:17;;;;;;;17.70;4.10;;;;;;;19.37;43.64;101904.03;5077089;28;20461;-52
2021/06/13 04:47:44;;;;;;;14.50;4.40;;;;;;;19.93;42.53;101907.88;5074815;28;20489;-48
2021/06/13 04:50:13;;;;;;;15.93;3.60;;;;;;;19.48;43.42;101904.31;5076713;28;20509;-49
2021/06/13 04:52:43;;;;;;;11.80;4.03;;;;;;;19.73;43.03;101904.88;5075252;28;20785;-50
2021/06/13 04:55:27;;;;;;;13.87;3.60;;;;;;;19.35;43.75;101922.34;5076788;28;20455;-47
2021/06/13 04:58:06;;;;;;;23.00;5.10;;;;;;;19.98;42.67;101915.91;5075553;28;20475;-47
2021/06/13 05:00:34;;;;;;;18.03;4.43;;;;;;;19.47;43.50;101906.03;5076757;28;20476;-50
2021/06/13 05:03:01;;;;;;;16.87;4.07;;;;;;;19.86;43.00;101906.00;5073949;28;20958;-46
2021/06/13 05:05:29;;;;;;;15.07;4.13;;;;;;;19.90;42.76;101906.09;5076188;28;20455;-46
2021/06/13 05:07:57;;;;;;;15.57;4.43;;;;;;;20.17;42.30;101904.06;5075195;28;20482;-48
2021/06/13 05:10:26;;;;;;;22.77;5.20;;;;;;;19.72;43.90;101908.31;5076583;28;20482;-48
2021/06/13 05:12:54;;;;;;;15.70;3.90;;;;;;;19.80;43.00;101897.16;5075287;28;20482;-49
2021/06/13 05:15:23;;;;;;;18.90;4.50;;;;;;;20.09;42.59;101904.78;5076111;28;20455;-48
2021/06/13 05:17:50;;;;;;;19.03;4.20;;;;;;;20.28;42.19;101907.78;5075080;28;20490;-51
2021/06/13 05:20:19;;;;;;;10.83;3.80;;;;;;;19.83;42.94;101905.09;5075945;28;20488;-48
2021/06/13 05:22:51;;;;;;;16.10;4.00;;;;;;;19.76;43.63;101908.44;5074810;28;20476;-47
2021/06/13 05:25:19;;;;;;;19.37;4.70;;;;;;;20.07;42.97;101898.63;5076288;28;20457;-50
2021/06/13 05:27:48;;;;;;;13.80;3.60;;;;;;;20.17;43.49;101898.81;5074684;28;20497;-50
2021/06/13 05:30:16;;;;;;;14.60;4.90;;;;;;;20.23;42.83;101906.78;5075597;28;20477;-46
2021/06/13 05:32:43;;;;;;;15.47;4.30;;;;;;;20.16;42.95;101915.38;5074742;28;20577;-49
2021/06/13 05:35:11;;;;;;;19.80;6.60;;;;;;;20.23;43.07;101914.66;5075766;28;20480;-48
2021/06/13 05:37:39;;;;;;;18.87;5.50;;;;;;;19.84;44.04;101904.25;5074861;28;20481;-49
2021/06/13 05:40:08;;;;;;;21.80;6.83;;;;;;;20.55;42.43;101906.53;5075467;28;20481;-50
2021/06/13 05:42:36;;;;;;;19.00;7.50;;;;;;;20.29;42.91;101917.41;5074578;28;20471;-50
2021/06/13 05:45:07;;;;;;;22.50;5.80;;;;;;;20.02;43.90;101916.00;5075693;28;20489;-49
2021/06/13 05:47:35;;;;;;;11.47;4.30;;;;;;;20.21;43.79;101917.22;5074127;28;20912;-48
2021/06/13 05:50:03;;;;;;;23.83;8.60;;;;;;;20.04;44.08;101908.19;5075823;28;20474;-49
2021/06/13 05:52:31;;;;;;;42.00;19.03;;;;;;;20.09;44.75;101911.75;5074483;28;20482;-46
2021/06/13 05:54:59;;;;;;;15.30;4.93;;;;;;;19.62;44.53;101921.22;5075733;28;20459;-47
2021/06/13 05:57:31;;;;;;;27.90;11.30;;;;;;;20.25;43.70;101923.41;5073789;28;21005;-50
2021/06/13 05:59:59;;;;;;;28.93;10.83;;;;;;;20.33;43.62;101921.84;5075526;28;20488;-50
2021/06/13 06:02:28;;;;;;;19.77;5.60;;;;;;;19.84;44.63;101922.56;5074294;28;20484;-48
2021/06/13 06:04:56;;;;;;;20.60;6.63;;;;;;;20.23;43.27;101935.63;5075613;28;20485;-47
2021/06/13 06:07:23;;;;;;;15.60;5.13;;;;;;;20.40;42.95;101935.06;5074186;28;20477;-50
2021/06/13 06:09:51;;;;;;;16.20;4.77;;;;;;;20.52;42.75;101948.41;5075503;28;20800;-46
2021/06/13 06:12:18;;;;;;;16.80;4.90;;;;;;;20.50;43.41;101947.50;5074001;28;20470;-49
2021/06/13 06:14:46;;;;;;;15.00;4.60;;;;;;;20.42;43.37;101959.56;5074783;28;20488;-52
2021/06/13 06:17:14;;;;;;;21.53;4.87;;;;;;;20.39;43.47;101956.91;5071808;28;20473;-50
2021/06/13 06:19:43;;;;;;;24.13;10.10;;;;;;;20.32;43.12;101966.38;5075414;28;20479;-49
2021/06/13 06:22:11;;;;;;;21.10;4.60;;;;;;;20.40;43.11;101964.78;5074173;28;20466;-47
2021/06/13 06:24:38;;;;;;;14.93;4.93;;;;;;;20.95;41.76;101963.19;5075126;28;20480;-49
2021/06/13 06:27:06;;;;;;;15.20;4.90;;;;;;;20.66;42.52;101966.16;5073831;28;20463;-47
2021/06/13 06:29:34;;;;;;;18.33;5.23;;;;;;;20.72;41.82;101961.03;5075012;28;20484;-49
2021/06/13 06:32:01;;;;;;;14.90;4.77;;;;;;;20.89;41.94;101963.97;5074394;28;20773;-51
2021/06/13 06:34:29;;;;;;;14.90;4.00;;;;;;;20.97;41.50;101972.00;5074889;28;20521;-48
2021/06/13 06:36:58;;;;;;;14.03;5.10;;;;;;;21.20;41.18;101959.25;5073601;28;20466;-50
2021/06/13 06:39:25;;;;;;;16.37;4.37;;;;;;;20.77;42.20;101967.25;5074856;28;20498;-46
2021/06/13 06:41:53;;;;;;;14.10;5.17;;;;;;;20.76;42.89;101961.09;5075107;28;20777;-50
2021/06/13 06:44:20;;;;;;;17.80;4.87;;;;;;;21.10;41.49;101942.47;5074587;28;20510;-47
2021/06/13 06:46:48;;;;;;;11.57;4.20;;;;;;;21.45;41.19;101965.78;5074894;28;20796;-46
2021/06/13 06:49:16;;;;;;;14.83;4.77;;;;;;;21.26;41.87;101967.22;5073675;28;20484;-49
2021/06/13 06:51:43;;;;;;;13.20;4.50;;;;;;;21.39;40.53;101968.28;5075124;28;20458;-47
2021/06/13 06:54:12;;;;;;;22.37;4.87;;;;;;;21.66;40.51;101984.47;5072741;28;20476;-46
2021/06/13 06:56:40;;;;;;;16.90;4.87;;;;;;;21.27;41.68;101984.75;5074689;28;20866;-48
2021/06/13 06:59:07;;;;;;;15.13;4.00;;;;;;;21.65;40.29;101983.59;5073607;28;20481;-49
2021/06/13 07:01:35;;;;;;;17.00;3.90;;;;;;;21.30;40.28;101991.78;5075039;28;20520;-53
2021/06/13 07:04:03;;;;;;;15.57;4.80;;;;;;;21.03;41.70;101995.72;5073614;28;20582;-50
2021/06/13 07:06:30;;;;;;;14.53;4.63;;;;;;;20.85;42.41;102005.00;5074520;28;20480;-49
2021/06/13 07:08:58;;;;;;;15.53;6.20;;;;;;;21.17;41.94;102002.06;5073438;28;20785;-49
2021/06/13 07:11:27;;;;;;;12.40;5.33;;;;;;;21.54;41.00;102008.78;5075068;28;20466;-54
2021/06/13 07:13:54;;;;;;;18.63;5.03;;;;;;;21.59;41.16;102009.75;5073594;28;20503;-52
2021/06/13 07:16:22;;;;;;;11.80;3.80;;;;;;;21.40;42.40;102003.31;5074455;28;20455;-46
2021/06/13 07:18:50;;;;;;;17.00;5.00;;;;;;;21.82;40.15;102012.75;5073368;28;20482;-50
2021/06/13 07:21:18;;;;;;;12.47;4.10;;;;;;;21.23;40.86;102022.28;5074644;28;20457;-47
2021/06/13 07:23:45;;;;;;;19.70;4.87;;;;;;;21.06;42.12;102023.75;5073371;28;20488;-52
2021/06/13 07:26:13;;;;;;;14.63;4.37;;;;;;;20.96;41.53;102027.94;5075104;28;20461;-51
2021/06/13 07:28:42;;;;;;;13.43;4.00;;;;;;;20.93;41.61;102034.00;5076934;28;20491;-49
2021/06/13 07:31:09;;;;;;;18.97;5.23;;;;;;;21.33;41.22;102033.81;5077947;28;20464;-49
2021/06/13 07:33:37;;;;;;;17.13;7.07;;;;;;;21.33;41.61;102044.31;5077014;28;20835;-50
2021/06/13 07:36:06;;;;;;;16.93;4.67;;;;;;;21.17;42.56;102044.06;5077859;28;20469;-48
2021/06/13 07:38:33;;;;;;;14.30;3.37;;;;;;;21.13;41.64;102039.59;5076749;28;20486;-50
2021/06/13 07:41:01;;;;;;;15.13;5.20;;;;;;;21.27;42.48;102044.22;5078394;28;20456;-48
2021/06/13 07:43:28;;;;;;;22.57;5.43;;;;;;;21.69;40.33;102043.19;5076877;28;20488;-47
2021/06/13 07:45:57;;;;;;;17.83;4.93;;;;;;;22.04;40.29;102043.72;5077668;28;20498;-47
2021/06/13 07:48:25;;;;;;;23.90;5.40;;;;;;;21.82;41.19;102046.91;5076455;28;21224;-49
2021/06/13 07:50:53;;;;;;;13.70;3.73;;;;;;;21.82;40.27;102044.28;5077819;28;20461;-50
2021/06/13 07:53:20;;;;;;;16.50;4.30;;;;;;;21.23;42.41;102047.66;5094441;28;20477;-48
2021/06/13 07:55:48;;;;;;;12.80;5.10;;;;;;;21.06;43.18;102053.47;5097910;28;20456;-45
2021/06/13 07:58:16;;;;;;;13.40;4.43;;;;;;;21.95;40.04;102047.97;5096723;28;20488;-53
2021/06/13 08:00:43;;;;;;;13.63;4.27;;;;;;;22.25;39.75;102038.75;5097908;28;20546;-49
2021/06/13 08:03:12;;;;;;;15.70;4.80;;;;;;;22.54;40.25;102033.88;5096733;28;20488;-51
2021/06/13 08:05:42;;;;;;;12.77;4.17;;;;;;;21.70;40.96;102055.47;5097500;28;20486;-49
2021/06/13 08:08:10;;;;;;;17.57;4.23;;;;;;;22.16;39.85;102048.25;5096470;28;20477;-51
2021/06/13 08:10:39;;;;;;;15.17;4.13;;;;;;;21.94;39.21;102061.97;5097794;28;20469;-50
2021/06/13 08:13:07;;;;;;;12.10;4.23;;;;;;;21.90;39.55;102059.28;5096533;28;20504;-50
2021/06/13 08:15:35;;;;;;;13.50;4.10;;;;;;;21.35;40.61;102055.75;5097446;28;20976;-49
2021/06/13 08:18:02;;;;;;;14.30;4.63;;;;;;;20.98;41.47;102071.66;5093358;28;20486;-49
2021/06/13 08:20:31;;;;;;;20.07;5.00;;;;;;;21.35;41.11;102075.84;5077284;28;20478;-48
2021/06/13 08:22:59;;;;;;;18.17;3.97;;;;;;;21.47;40.64;102072.56;5076236;28;20485;-51
2021/06/13 08:25:28;;;;;;;11.17;4.17;;;;;;;21.67;39.98;102081.66;5076959;28;20490;-47
2021/06/13 08:27:56;;;;;;;12.07;4.13;;;;;;;21.92;39.93;102076.81;5075918;28;20491;-49
2021/06/13 08:30:24;;;;;;;15.57;4.93;;;;;;;22.11;39.51;102077.09;5076939;28;20946;-53
2021/06/13 08:32:52;;;;;;;12.30;4.67;;;;;;;21.86;40.34;102076.72;5075884;28;20491;-49
2021/06/13 08:35:20;;;;;;;14.77;4.83;;;;;;;21.73;40.75;102083.50;5077023;28;20458;-48
2021/06/13 08:37:50;;;;;;;17.50;5.10;;;;;;;21.92;40.22;102092.59;5075811;28;20528;-49
2021/06/13 08:40:19;;;;;;;12.37;4.33;;;;;;;22.29;40.62;102088.75;5076719;28;20949;-49
2021/06/13 08:42:46;;;;;;;19.73;5.03;;;;;;;22.54;39.20;102086.47;5075639;28;20492;-51
2021/06/13 08:45:15;;;;;;;15.93;4.60;;;;;;;22.52;39.57;102092.56;5077065;28;20514;-46
2021/06/13 08:47:44;;;;;;;12.13;4.87;;;;;;;22.68;39.73;102099.78;5075318;28;20483;-50
2021/06/13 08:50:12;;;;;;;13.93;4.40;;;;;;;22.04;39.93;102096.28;5076714;28;20482;-48
2021/06/13 08:52:40;;;;;;;14.33;4.50;;;;;;;22.06;40.91;102105.03;5075599;28;20479;-48
2021/06/13 08:55:11;;;;;;;15.30;4.90;;;;;;;21.86;40.88;102124.00;5076633;28;20760;-51
2021/06/13 08:57:38;;;;;;;14.90;5.17;;;;;;;22.03;40.83;102120.75;5075477;28;20471;-51
2021/06/13 09:00:08;;;;;;;14.53;5.07;;;;;;;21.65;41.20;102125.38;5076388;28;20483;-53
2021/06/13 09:02:36;;;;;;;20.43;7.20;;;;;;;21.96;39.91;102125.91;5075378;28;20792;-50
2021/06/13 09:05:06;;;;;;;23.37;8.77;;;;;;;21.78;41.21;102123.00;5076436;28;20966;-50
2021/06/13 09:07:35;;;;;;;10.83;4.70;;;;;;;22.16;39.73;102120.09;5074792;28;20479;-48
2021/06/13 09:10:08;;;;;;;23.23;9.70;;;;;;;22.19;39.93;102119.28;5076354;28;20977;-51
2021/06/13 09:12:37;;;;;;;13.60;6.10;;;;;;;22.31;39.18;102119.41;5074960;28;20920;-50
2021/06/13 09:15:07;;;;;;;24.43;11.73;;;;;;;22.49;39.28;102124.06;5076423;28;20451;-48
2021/06/13 09:17:42;;;;;;;16.83;4.53;;;;;;;22.75;38.56;102123.56;5074672;28;20497;-52
2021/06/13 09:20:17;;;;;;;20.07;6.23;;;;;;;22.68;37.80;102113.81;5076098;28;20566;-54
2021/06/13 09:23:06;;;;;;;16.10;4.77;;;;;;;22.46;37.93;102116.13;5074994;28;20490;-46
2021/06/13 09:25:34;;;;;;;13.27;4.53;;;;;;;22.14;38.40;102119.16;5075792;28;20485;-49
2021/06/13 09:28:08;;;;;;;13.83;5.40;;;;;;;23.06;37.28;102113.41;5074778;28;20582;-49
2021/06/13 09:30:37;;;;;;;14.03;4.90;;;;;;;22.61;39.60;102126.00;5075598;28;20478;-52
2021/06/13 09:33:10;;;;;;;14.00;4.97;;;;;;;22.59;37.32;102124.22;5074429;28;20483;-50
2021/06/13 09:35:38;;;;;;;17.50;5.67;;;;;;;22.59;37.47;102132.09;5075648;28;20462;-48
2021/06/13 09:38:08;;;;;;;22.40;5.30;;;;;;;23.36;36.17;102129.53;5074644;28;20485;-50
2021/06/13 09:40:37;;;;;;;16.47;5.00;;;;;;;22.69;36.97;102143.63;5075763;28;20545;-52
2021/06/13 09:43:13;;;;;;;15.00;5.33;;;;;;;22.85;37.92;102144.69;5074719;28;20479;-49
2021/06/13 09:45:50;;;;;;;13.00;4.53;;;;;;;23.04;37.41;102140.56;5075365;28;20954;-51
2021/06/13 09:48:18;;;;;;;13.33;5.50;;;;;;;23.49;36.35;102127.00;5074341;28;20484;-49
2021/06/13 09:50:47;;;;;;;20.20;5.97;;;;;;;23.27;37.28;102143.44;5075314;28;20767;-49
2021/06/13 09:53:22;;;;;;;16.00;5.10;;;;;;;23.89;35.39;102132.59;5074073;28;20924;-49
2021/06/13 09:56:02;;;;;;;16.83;5.00;;;;;;;23.55;35.72;102138.50;5075264;28;20453;-51
2021/06/13 09:58:32;;;;;;;14.60;5.27;;;;;;;23.87;36.70;102151.06;5074137;28;20488;-51
2021/06/13 10:01:06;;;;;;;19.00;5.60;;;;;;;23.52;37.02;102154.25;5075903;28;20468;-48
2021/06/13 10:03:36;;;;;;;14.83;4.90;;;;;;;23.44;36.93;102135.72;5074277;28;20482;-50
2021/06/13 10:06:05;;;;;;;14.83;5.10;;;;;;;23.49;36.86;102137.53;5075036;28;20488;-50
2021/06/13 10:08:34;;;;;;;15.37;4.30;;;;;;;23.12;36.88;102145.91;5073979;28;20973;-50
2021/06/13 10:11:02;;;;;;;15.70;5.20;;;;;;;23.50;36.38;102148.09;5075501;28;20548;-48
2021/06/13 10:13:49;;;;;;;17.00;5.67;;;;;;;23.47;37.41;102148.06;5074034;28;20930;-55
2021/06/13 10:16:33;;;;;;;20.20;5.60;;;;;;;23.77;35.67;102148.31;5075014;28;20476;-46
2021/06/13 10:19:05;;;;;;;15.37;5.20;;;;;;;24.08;35.09;102133.66;5074050;28;20524;-50
2021/06/13 10:21:35;;;;;;;15.60;5.00;;;;;;;23.28;35.88;102144.34;5075289;28;20910;-48
2021/06/13 10:24:07;;;;;;;13.77;4.73;;;;;;;23.68;35.90;102138.59;5074025;28;20477;-49
2021/06/13 10:26:37;;;;;;;14.07;5.00;;;;;;;23.82;35.62;102134.31;5074889;28;20508;-50
2021/06/13 10:29:06;;;;;;;23.27;5.77;;;;;;;24.01;35.94;102131.84;5073425;28;20788;-50
2021/06/13 10:31:34;;;;;;;14.03;5.03;;;;;;;24.10;34.82;102142.47;5075367;28;20773;-49
2021/06/13 10:34:02;;;;;;;15.97;5.10;;;;;;;23.70;35.96;102147.41;5074018;28;20921;-52
2021/06/13 10:36:32;;;;;;;14.80;4.77;;;;;;;23.82;35.20;102144.88;5074756;28;20773;-51
2021/06/13 10:39:00;;;;;;;18.93;5.23;;;;;;;24.10;36.71;102141.59;5073841;28;20477;-49
2021/06/13 10:41:28;;;;;;;9.13;4.10;;;;;;;23.93;35.62;102141.44;5075119;28;20464;-55
2021/06/13 10:44:00;;;;;;;13.47;5.10;;;;;;;23.71;35.33;102143.88;5073984;28;20475;-52
2021/06/13 10:46:31;;;;;;;22.03;4.87;;;;;;;23.17;35.99;102152.13;5074633;28;20487;-48
2021/06/13 10:49:01;;;;;;;12.47;4.80;;;;;;;23.88;34.92;102146.66;5073721;28;20482;-49
2021/06/13 10:51:34;;;;;;;12.60;4.43;;;;;;;24.13;34.08;102137.22;5075001;28;20545;-52
2021/06/13 10:54:23;;;;;;;10.90;4.50;;;;;;;23.32;35.87;102140.88;5073691;28;20496;-49
2021/06/13 10:56:52;;;;;;;13.87;5.30;;;;;;;23.68;35.61;102135.97;5074708;28;20479;-52
2021/06/13 10:59:21;;;;;;;12.63;4.37;;;;;;;23.75;35.25;102145.69;5074297;28;20478;-51
2021/06/13 11:02:08;;;;;;;12.50;4.30;;;;;;;24.03;36.04;102151.16;5076639;28;20461;-52
2021/06/13 11:04:43;;;;;;;11.40;4.87;;;;;;;24.46;34.27;102155.00;5078092;28;20880;-50
2021/06/13 11:07:11;;;;;;;11.30;4.67;;;;;;;24.59;32.81;102151.56;5079579;28;20478;-50
2021/06/13 11:10:14;;;;;;;14.73;4.60;;;;;;;23.93;35.37;102157.25;5099131;28;20479;-54
2021/06/13 11:12:46;;;;;;;13.70;5.53;;;;;;;23.27;37.54;102148.69;5097383;28;20516;-49
2021/06/13 11:15:18;;;;;;;18.10;6.17;;;;;;;23.40;37.83;102148.88;5099226;28;20916;-49
2021/06/13 11:17:55;;;;;;;14.40;6.07;;;;;;;23.43;37.99;102154.19;5097436;28;20899;-50
2021/06/13 11:20:37;;;;;;;15.03;5.10;;;;;;;23.71;37.61;102144.78;5098912;28;20792;-48
2021/06/13 11:23:06;;;;;;;12.40;4.67;;;;;;;23.59;37.50;102144.66;5097407;28;20495;-48
2021/06/13 11:25:37;;;;;;;14.23;5.17;;;;;;;23.82;37.62;102139.59;5098736;28;20459;-51
2021/06/13 11:28:16;;;;;;;11.93;3.80;;;;;;;23.66;37.30;102146.50;5097335;28;20949;-47